Time;durP1;ratioP1;P1;durP2;ratioP2;P2;SDS_P1;SDS_P2;PMS_P1;PMS_P2;Temp;Humidity;BMP_temperature;BMP_pressure;BME280_temperature;BME280_humidity;BME280_pressure;Samples;Min_cycle;Max_cycle;Signal;HPM_P1;HPM_P2
2023/11/05 00:00:01;;;;;;;0.20;0.20;;;;;;;11.55;73.17;97112.63;5073206;28;20016;-84
2023/11/05 00:02:27;;;;;;;0.10;0.10;;;;;;;11.54;73.17;97113.59;5082959;28;20032;-83
2023/11/05 00:04:54;;;;;;;0.10;0.10;;;;;;;11.53;73.15;97101.31;5075447;28;20020;-83
2023/11/05 00:07:20;;;;;;;5.13;1.90;;;;;;;11.50;72.95;97101.56;5075249;28;20078;-83
2023/11/05 00:09:46;;;;;;;0.10;0.10;;;;;;;11.53;73.29;97101.31;5076544;28;20035;-82
2023/11/05 00:12:12;;;;;;;0.10;0.10;;;;;;;11.48;73.65;97098.22;5075496;28;20032;-81
2023/11/05 00:14:41;;;;;;;0.10;0.10;;;;;;;11.50;72.88;97104.19;5073751;28;20032;-83
2023/11/05 00:17:07;;;;;;;0.10;0.10;;;;;;;11.49;73.54;97094.59;5078832;28;20054;-83
2023/11/05 00:19:33;;;;;;;1.90;1.65;;;;;;;11.45;73.23;97086.06;5073911;28;20103;-83
2023/11/05 00:22:00;;;;;;;0.28;0.28;;;;;;;11.37;73.42;97085.00;5076389;28;20111;-84
2023/11/05 00:24:28;;;;;;;0.10;0.10;;;;;;;11.38;73.17;97076.09;5076936;28;20028;-83
2023/11/05 00:26:54;;;;;;;5.03;2.53;;;;;;;11.40;73.31;97074.16;5075276;28;20020;-83
2023/11/05 00:29:21;;;;;;;0.30;0.30;;;;;;;11.41;72.71;97078.47;5077878;28;20028;-84
2023/11/05 00:31:47;;;;;;;0.10;0.10;;;;;;;11.40;72.93;97077.66;5080373;28;20056;-83
2023/11/05 00:34:13;;;;;;;1.02;0.90;;;;;;;11.35;73.35;97081.66;5080838;28;20491;-83
2023/11/05 00:36:39;;;;;;;0.40;0.40;;;;;;;11.39;73.44;97077.75;5076843;28;20021;-83
2023/11/05 00:39:06;;;;;;;0.10;0.10;;;;;;;11.39;73.02;97062.72;5076936;28;20115;-83
2023/11/05 00:41:32;;;;;;;0.10;0.10;;;;;;;11.39;73.37;97072.47;5073223;28;20441;-84
2023/11/05 00:43:58;;;;;;;0.17;0.17;;;;;;;11.37;73.29;97069.13;5077060;28;20047;-82
2023/11/05 00:46:25;;;;;;;0.10;0.10;;;;;;;11.36;73.40;97062.13;5083028;28;20056;-83
2023/11/05 00:48:52;;;;;;;0.20;0.20;;;;;;;11.39;73.58;97067.16;5078190;28;20528;-84
2023/11/05 00:51:19;;;;;;;0.22;0.22;;;;;;;11.42;73.89;97066.91;5077263;28;20017;-84
2023/11/05 00:53:45;;;;;;;0.10;0.10;;;;;;;11.47;73.70;97070.00;5079140;28;20028;-84
2023/11/05 00:56:11;;;;;;;0.10;0.10;;;;;;;11.59;73.82;97062.81;5076012;28;20056;-84
2023/11/05 00:58:37;;;;;;;0.20;0.20;;;;;;;11.60;74.14;97064.50;5084575;28;20063;-84
2023/11/05 01:01:04;;;;;;;0.10;0.10;;;;;;;11.64;74.28;97064.13;5096866;28;20024;-84
2023/11/05 01:03:30;;;;;;;0.70;0.70;;;;;;;11.72;73.66;97065.28;5086982;28;20037;-85
2023/11/05 01:05:56;;;;;;;0.10;0.10;;;;;;;11.79;73.84;97061.97;5085320;28;20036;-85
2023/11/05 01:08:22;;;;;;;0.10;0.10;;;;;;;11.82;73.54;97060.88;5086429;28;20043;-85
2023/11/05 01:10:49;;;;;;;0.20;0.20;;;;;;;11.81;73.27;97067.13;5081318;28;20510;-84
2023/11/05 01:13:16;;;;;;;0.10;0.10;;;;;;;11.89;73.60;97054.06;5079048;28;20028;-83
2023/11/05 01:15:42;;;;;;;0.15;0.15;;;;;;;11.92;73.49;97058.25;5079435;28;20056;-84
2023/11/05 01:18:08;;;;;;;0.10;0.10;;;;;;;11.94;73.55;97059.81;5084624;28;20020;-85
2023/11/05 01:20:34;;;;;;;0.10;0.10;;;;;;;11.92;72.93;97056.44;5077192;28;20029;-84
2023/11/05 01:23:00;;;;;;;0.10;0.10;;;;;;;11.92;73.10;97059.09;5079486;28;20031;-84
2023/11/05 01:25:26;;;;;;;0.13;0.13;;;;;;;11.95;72.91;97050.03;5072696;28;20024;-83
2023/11/05 01:27:52;;;;;;;0.10;0.10;;;;;;;11.96;72.81;97055.25;5075905;28;20020;-83
2023/11/05 01:30:19;;;;;;;0.10;0.10;;;;;;;11.96;72.85;97049.94;5081871;28;20050;-83
2023/11/05 01:32:46;;;;;;;0.10;0.10;;;;;;;11.97;72.86;97048.97;5072588;28;20032;-83
2023/11/05 01:35:13;;;;;;;0.10;0.10;;;;;;;11.98;73.13;97047.97;5075671;28;20047;-82
2023/11/05 01:37:39;;;;;;;0.10;0.10;;;;;;;11.98;72.93;97049.81;5076297;28;20058;-85
2023/11/05 01:40:06;;;;;;;0.10;0.10;;;;;;;11.97;72.67;97046.31;5083765;28;20510;-82
2023/11/05 01:42:32;;;;;;;0.10;0.10;;;;;;;12.01;73.04;97040.75;5081842;28;20032;-85
2023/11/05 01:44:58;;;;;;;0.10;0.10;;;;;;;11.98;73.08;97041.84;5076364;28;20387;-83
2023/11/05 01:47:25;;;;;;;0.10;0.10;;;;;;;11.99;73.04;97043.53;5074695;28;20020;-83
2023/11/05 01:49:51;;;;;;;0.15;0.15;;;;;;;12.00;72.76;97036.41;5074539;28;20112;-83
2023/11/05 01:52:19;;;;;;;0.22;0.22;;;;;;;11.92;72.70;97037.03;5075343;28;20070;-82
2023/11/05 01:54:46;;;;;;;0.10;0.10;;;;;;;11.98;72.96;97034.72;5075845;28;20032;-82
2023/11/05 01:57:12;;;;;;;0.10;0.10;;;;;;;12.02;72.98;97037.13;5089122;28;20080;-83
2023/11/05 01:59:38;;;;;;;0.10;0.10;;;;;;;12.03;73.14;97033.50;5089641;28;20033;-82
2023/11/05 02:02:08;;;;;;;0.10;0.10;;;;;;;12.12;72.98;97045.94;5094821;28;20039;-83
2023/11/05 02:04:35;;;;;;;0.10;0.10;;;;;;;12.04;73.28;97046.63;5084422;28;20095;-84
2023/11/05 02:07:02;;;;;;;0.20;0.20;;;;;;;12.05;73.37;97039.50;5084367;28;20110;-84
2023/11/05 02:09:30;;;;;;;0.10;0.10;;;;;;;12.06;72.84;97038.53;5081350;28;20025;-83
2023/11/05 02:11:58;;;;;;;0.10;0.10;;;;;;;12.13;73.03;97034.38;5075497;28;20036;-82
2023/11/05 02:14:24;;;;;;;0.17;0.17;;;;;;;12.11;72.69;97042.47;5077135;28;20509;-82
2023/11/05 02:16:53;;;;;;;0.10;0.10;;;;;;;12.10;72.74;97039.94;5085710;28;20037;-83
2023/11/05 02:19:19;;;;;;;0.10;0.10;;;;;;;12.08;73.50;97041.91;5082911;28;20090;-84
2023/11/05 02:21:50;;;;;;;0.15;0.15;;;;;;;12.09;73.16;97038.28;5078738;28;20080;-84
2023/11/05 02:24:16;;;;;;;0.10;0.10;;;;;;;12.14;73.31;97033.41;5081357;28;20024;-84
2023/11/05 02:26:53;;;;;;;0.10;0.10;;;;;;;12.14;73.48;97033.41;5078773;28;20029;-83
2023/11/05 02:29:19;;;;;;;0.10;0.10;;;;;;;12.16;73.09;97034.09;5077532;28;20024;-84
2023/11/05 02:31:45;;;;;;;0.10;0.10;;;;;;;12.14;73.51;97025.44;5080860;28;20407;-83
2023/11/05 02:34:11;;;;;;;0.10;0.10;;;;;;;12.16;73.64;97030.59;5083116;28;20020;-83
2023/11/05 02:36:37;;;;;;;0.10;0.10;;;;;;;12.18;73.31;97032.16;5081238;28;20032;-84
2023/11/05 02:39:04;;;;;;;0.10;0.10;;;;;;;12.12;74.04;97025.59;5078818;28;20025;-84
2023/11/05 02:41:30;;;;;;;0.30;0.30;;;;;;;12.12;73.79;97020.28;5083178;28;20087;-83
2023/11/05 02:43:56;;;;;;;0.32;0.32;;;;;;;12.08;74.40;97031.28;5080789;28;20041;-82
2023/11/05 02:46:22;;;;;;;0.10;0.10;;;;;;;12.18;74.00;97033.97;5079340;28;20028;-83
2023/11/05 02:48:48;;;;;;;0.10;0.10;;;;;;;12.18;74.29;97024.19;5080346;28;20035;-82
2023/11/05 02:51:14;;;;;;;0.10;0.10;;;;;;;12.19;73.77;97017.91;5079720;28;20036;-82
2023/11/05 02:53:40;;;;;;;0.10;0.10;;;;;;;12.21;73.79;97018.63;5080591;28;20040;-82
2023/11/05 02:56:07;;;;;;;0.10;0.10;;;;;;;12.16;74.30;97022.63;5076199;28;20453;-82
2023/11/05 02:58:33;;;;;;;0.10;0.10;;;;;;;12.21;74.60;97018.63;5079187;28;20063;-82
2023/11/05 03:01:00;;;;;;;0.10;0.10;;;;;;;12.22;74.14;97017.63;5076931;28;20475;-82
2023/11/05 03:03:27;;;;;;;0.10;0.10;;;;;;;12.22;74.43;97016.78;5080966;28;20028;-82
2023/11/05 03:05:53;;;;;;;0.10;0.10;;;;;;;12.25;74.30;97009.41;5078370;28;20020;-82
2023/11/05 03:08:19;;;;;;;0.13;0.13;;;;;;;12.26;74.50;97008.44;5086035;28;20033;-82
2023/11/05 03:10:45;;;;;;;0.10;0.10;;;;;;;12.25;74.65;97006.75;5082117;28;20028;-82
2023/11/05 03:13:12;;;;;;;0.10;0.10;;;;;;;12.24;74.80;97010.38;5084613;28;20016;-82
2023/11/05 03:15:38;;;;;;;0.10;0.10;;;;;;;12.25;74.21;97006.75;5078685;28;20028;-82
2023/11/05 03:18:05;;;;;;;0.10;0.10;;;;;;;12.27;74.51;97011.91;5081685;28;20024;-82
2023/11/05 03:20:31;;;;;;;0.20;0.20;;;;;;;12.23;74.56;97015.81;5077250;28;20032;-82
2023/11/05 03:22:57;;;;;;;0.10;0.10;;;;;;;12.26;74.70;97012.88;5077574;28;20024;-82
2023/11/05 03:25:23;;;;;;;0.10;0.10;;;;;;;12.27;74.76;97015.44;5083008;28;20024;-82
2023/11/05 03:27:50;;;;;;;0.10;0.10;;;;;;;12.33;74.24;97018.50;5074807;28;20048;-82
2023/11/05 03:30:16;;;;;;;0.10;0.10;;;;;;;12.34;74.58;97009.56;5077846;28;20384;-81
2023/11/05 03:32:42;;;;;;;0.10;0.10;;;;;;;12.33;74.79;97006.06;5077030;28;20036;-82
2023/11/05 03:35:09;;;;;;;0.10;0.10;;;;;;;12.35;74.24;97009.44;5075091;28;20024;-81
2023/11/05 03:37:36;;;;;;;0.10;0.10;;;;;;;12.34;74.20;97007.75;5072220;28;20040;-82
2023/11/05 03:40:03;;;;;;;0.10;0.10;;;;;;;12.33;74.65;97005.25;5078668;28;20029;-82
2023/11/05 03:42:30;;;;;;;0.10;0.10;;;;;;;12.28;74.50;97011.78;5077635;28;20020;-83
2023/11/05 03:44:56;;;;;;;0.10;0.10;;;;;;;12.26;74.38;97013.75;5076122;28;20115;-83
2023/11/05 03:47:23;;;;;;;0.10;0.10;;;;;;;12.26;74.41;97016.41;5076943;28;20025;-82
2023/11/05 03:49:49;;;;;;;0.20;0.20;;;;;;;12.25;73.99;97027.13;5076372;28;20037;-83
2023/11/05 03:52:15;;;;;;;0.10;0.10;;;;;;;12.26;74.20;97021.72;5080751;28;20038;-83
2023/11/05 03:54:42;;;;;;;0.10;0.10;;;;;;;12.26;73.89;97024.34;5076208;28;20050;-83
2023/11/05 03:57:08;;;;;;;0.10;0.10;;;;;;;12.23;74.53;97023.78;5079216;28;20035;-82
2023/11/05 03:59:34;;;;;;;0.10;0.10;;;;;;;12.25;73.82;97022.69;5077793;28;20036;-83
2023/11/05 04:02:00;;;;;;;0.20;0.20;;;;;;;12.22;74.14;97019.44;5076557;28;20090;-83
2023/11/05 04:04:27;;;;;;;0.17;0.17;;;;;;;12.24;73.87;97018.34;5076656;28;20036;-83
2023/11/05 04:06:53;;;;;;;0.10;0.10;;;;;;;12.19;74.14;97020.56;5075446;28;20029;-83
2023/11/05 04:09:19;;;;;;;0.10;0.10;;;;;;;12.23;74.21;97023.78;5075675;28;20016;-83
2023/11/05 04:11:45;;;;;;;0.10;0.10;;;;;;;12.18;74.25;97024.19;5078049;28;20104;-82
2023/11/05 04:14:12;;;;;;;0.10;0.10;;;;;;;12.23;74.41;97031.75;5079920;28;20028;-83
2023/11/05 04:16:39;;;;;;;0.82;0.82;;;;;;;12.25;74.22;97027.97;5078378;28;20039;-82
2023/11/05 04:19:05;;;;;;;0.20;0.20;;;;;;;12.25;74.07;97027.13;5076995;28;20042;-83
2023/11/05 04:21:31;;;;;;;0.10;0.10;;;;;;;12.26;74.59;97027.00;5081875;28;20055;-82
2023/11/05 04:23:57;;;;;;;0.10;0.10;;;;;;;12.31;74.25;97026.59;5082204;28;20036;-83
2023/11/05 04:26:23;;;;;;;0.10;0.10;;;;;;;12.33;74.15;97031.78;5083590;28;20503;-83
2023/11/05 04:28:49;;;;;;;0.10;0.10;;;;;;;12.34;74.32;97030.81;5081187;28;20031;-83
2023/11/05 04:31:16;;;;;;;0.10;0.10;;;;;;;12.30;74.35;97036.38;5081205;28;20035;-83
2023/11/05 04:33:42;;;;;;;0.20;0.20;;;;;;;12.32;74.54;97027.44;5080803;28;20103;-83
2023/11/05 04:36:08;;;;;;;0.10;0.10;;;;;;;12.38;74.57;97033.03;5087473;28;20460;-83
2023/11/05 04:38:36;;;;;;;0.15;0.15;;;;;;;12.37;74.53;97030.53;5081410;28;20092;-83
2023/11/05 04:41:02;;;;;;;0.10;0.10;;;;;;;12.40;74.64;97035.53;5079262;28;20031;-82
2023/11/05 04:43:28;;;;;;;0.20;0.20;;;;;;;12.42;74.32;97034.47;5083377;28;20024;-83
2023/11/05 04:45:54;;;;;;;0.10;0.10;;;;;;;12.41;74.48;97032.78;5080878;28;20260;-82
2023/11/05 04:48:20;;;;;;;0.10;0.10;;;;;;;12.43;74.10;97035.28;5078824;28;20050;-82
2023/11/05 04:50:46;;;;;;;0.10;0.10;;;;;;;12.47;74.21;97034.03;5081734;28;20492;-82
2023/11/05 04:53:12;;;;;;;0.10;0.10;;;;;;;12.48;74.15;97027.75;5082218;28;20024;-82
2023/11/05 04:55:39;;;;;;;0.17;0.17;;;;;;;12.45;74.57;97036.00;5087931;28;20043;-82
2023/11/05 04:58:05;;;;;;;0.10;0.10;;;;;;;12.50;74.37;97033.78;5087107;28;20034;-82
2023/11/05 05:00:31;;;;;;;0.10;0.10;;;;;;;12.52;74.66;97038.94;5077964;28;20113;-82
2023/11/05 05:02:57;;;;;;;0.10;0.10;;;;;;;12.56;74.56;97041.19;5081022;28;20048;-82
2023/11/05 05:05:23;;;;;;;0.75;0.75;;;;;;;12.56;74.06;97045.66;5081904;28;20079;-82
2023/11/05 05:07:49;;;;;;;0.20;0.20;;;;;;;12.57;74.11;97040.22;5079049;28;20028;-82
2023/11/05 05:10:15;;;;;;;0.10;0.10;;;;;;;12.59;74.16;97040.09;5076838;28;20112;-81
2023/11/05 05:12:41;;;;;;;0.10;0.10;;;;;;;12.59;74.53;97050.69;5078100;28;20127;-81
2023/11/05 05:15:08;;;;;;;0.10;0.10;;;;;;;12.59;74.52;97046.22;5083487;28;20029;-81
2023/11/05 05:17:35;;;;;;;0.10;0.10;;;;;;;12.60;74.44;97047.91;5096614;28;20028;-82
2023/11/05 05:20:04;;;;;;;0.10;0.10;;;;;;;12.60;74.21;97050.56;5080649;28;20052;-82
2023/11/05 05:22:30;;;;;;;0.10;0.10;;;;;;;12.61;74.43;97054.91;5081533;28;20482;-83
2023/11/05 05:24:56;;;;;;;0.10;0.10;;;;;;;12.59;74.20;97048.88;5078296;28;20071;-83
2023/11/05 05:27:22;;;;;;;0.10;0.10;;;;;;;12.63;74.29;97054.75;5082262;28;20020;-83
2023/11/05 05:29:48;;;;;;;0.10;0.10;;;;;;;12.64;74.26;97053.78;5086487;28;20037;-83
2023/11/05 05:32:14;;;;;;;0.20;0.20;;;;;;;12.65;74.18;97057.25;5081462;28;20067;-82
2023/11/05 05:34:40;;;;;;;0.10;0.10;;;;;;;12.66;74.16;97056.28;5082948;28;20067;-81
2023/11/05 05:37:07;;;;;;;0.10;0.10;;;;;;;12.66;74.03;97061.59;5079637;28;20064;-82
2023/11/05 05:39:33;;;;;;;0.20;0.20;;;;;;;12.65;74.01;97067.88;5078279;28;20033;-82
2023/11/05 05:42:03;;;;;;;0.10;0.10;;;;;;;12.66;74.15;97069.56;5078527;28;20025;-83
2023/11/05 05:44:30;;;;;;;0.17;0.17;;;;;;;12.67;73.99;97073.91;5074878;28;20396;-82
2023/11/05 05:46:57;;;;;;;0.10;0.10;;;;;;;12.69;74.17;97070.16;5075290;28;20029;-82
2023/11/05 05:49:23;;;;;;;0.10;0.10;;;;;;;12.65;73.80;97070.53;5076591;28;20031;-83
2023/11/05 05:51:49;;;;;;;0.13;0.13;;;;;;;12.66;73.72;97074.88;5078505;28;20025;-82
2023/11/05 05:54:15;;;;;;;0.10;0.10;;;;;;;12.66;74.17;97080.19;5078250;28;20056;-82
2023/11/05 05:56:41;;;;;;;0.10;0.10;;;;;;;12.66;73.92;97080.19;5078117;28;20028;-83
2023/11/05 05:59:07;;;;;;;0.30;0.30;;;;;;;12.64;74.17;97068.88;5076844;28;20020;-82
2023/11/05 06:01:34;;;;;;;0.15;0.15;;;;;;;12.62;73.92;97082.28;5074542;28;20104;-82
2023/11/05 06:04:00;;;;;;;0.20;0.20;;;;;;;12.61;73.90;97086.75;5067010;28;20028;-81
2023/11/05 06:06:26;;;;;;;0.57;0.57;;;;;;;12.57;74.12;97085.38;5075605;28;20562;-82
2023/11/05 06:08:52;;;;;;;0.10;0.10;;;;;;;12.58;74.04;97076.41;5072674;28;20032;-82
2023/11/05 06:11:18;;;;;;;0.17;0.17;;;;;;;12.58;73.51;97079.06;5073511;28;20025;-82
2023/11/05 06:13:44;;;;;;;0.10;0.10;;;;;;;12.58;73.68;97079.06;5073818;28;20035;-82
2023/11/05 06:16:10;;;;;;;0.10;0.10;;;;;;;12.57;74.19;97082.72;5075117;28;20055;-82
2023/11/05 06:18:37;;;;;;;0.13;0.13;;;;;;;12.56;73.53;97083.69;5072828;28;20491;-81
2023/11/05 06:21:04;;;;;;;0.10;0.10;;;;;;;12.56;73.96;97086.34;5073334;28;20052;-82
2023/11/05 06:23:30;;;;;;;0.10;0.10;;;;;;;12.55;74.12;97097.94;5073999;28;20035;-82
2023/11/05 06:25:57;;;;;;;0.10;0.10;;;;;;;12.54;73.84;97096.25;5079233;28;20028;-82
2023/11/05 06:28:23;;;;;;;0.10;0.10;;;;;;;12.51;74.08;97100.97;5087083;28;20028;-82
2023/11/05 06:30:49;;;;;;;0.10;0.10;;;;;;;12.54;73.55;97101.56;5080579;28;20032;-82
2023/11/05 06:33:15;;;;;;;0.10;0.10;;;;;;;12.50;73.85;97100.16;5080313;28;20040;-83
2023/11/05 06:35:42;;;;;;;0.10;0.10;;;;;;;12.50;73.99;97110.78;5079371;28;20040;-83
2023/11/05 06:38:08;;;;;;;0.20;0.20;;;;;;;12.53;73.91;97113.16;5079243;28;20028;-83
2023/11/05 06:40:34;;;;;;;0.10;0.10;;;;;;;12.56;73.89;97112.03;5078756;28;20083;-83
2023/11/05 06:43:01;;;;;;;0.10;0.10;;;;;;;12.53;73.80;97123.75;5077310;28;20033;-82
2023/11/05 06:45:27;;;;;;;5.38;2.17;;;;;;;12.53;74.27;97125.59;5069235;28;20041;-82
2023/11/05 06:47:53;;;;;;;0.20;0.20;;;;;;;12.54;73.84;97122.78;5073903;28;20021;-80
2023/11/05 06:50:21;;;;;;;0.10;0.10;;;;;;;12.61;73.68;97129.25;5076430;28;20028;-82
2023/11/05 06:52:48;;;;;;;0.10;0.10;;;;;;;12.65;73.95;97134.28;5075299;28;20400;-82
2023/11/05 06:55:14;;;;;;;0.10;0.10;;;;;;;12.69;73.99;97133.06;5079978;28;20417;-83
2023/11/05 06:57:40;;;;;;;0.10;0.10;;;;;;;12.69;74.13;97146.34;5079440;28;20020;-83
2023/11/05 07:00:08;;;;;;;0.10;0.10;;;;;;;12.70;74.06;97142.72;5076394;28;20082;-83
2023/11/05 07:02:35;;;;;;;0.10;0.10;;;;;;;12.73;73.70;97148.56;5073584;28;20104;-81
2023/11/05 07:05:04;;;;;;;0.10;0.10;;;;;;;12.75;74.28;97156.41;5074755;28;20384;-82
2023/11/05 07:07:31;;;;;;;0.10;0.10;;;;;;;12.77;74.01;97165.06;5073536;28;20021;-83
2023/11/05 07:09:58;;;;;;;0.10;0.10;;;;;;;12.78;73.81;97166.75;5074867;28;20036;-82
2023/11/05 07:12:24;;;;;;;0.30;0.30;;;;;;;12.75;74.17;97172.34;5073623;28;20062;-82
2023/11/05 07:14:51;;;;;;;0.10;0.10;;;;;;;12.76;74.19;97168.69;5074467;28;20037;-83
2023/11/05 07:17:17;;;;;;;0.10;0.10;;;;;;;12.79;74.19;97173.75;5074350;28;20507;-83
2023/11/05 07:19:43;;;;;;;0.20;0.20;;;;;;;12.82;74.05;97168.16;5074854;28;20054;-82
2023/11/05 07:22:11;;;;;;;0.10;0.10;;;;;;;12.82;74.28;97176.13;5077707;28;20042;-83
2023/11/05 07:24:38;;;;;;;0.10;0.10;;;;;;;12.81;74.34;97182.44;5086561;28;20078;-82
2023/11/05 07:27:05;;;;;;;0.13;0.13;;;;;;;12.83;74.42;97191.09;5084000;28;20075;-83
2023/11/05 07:29:32;;;;;;;0.10;0.10;;;;;;;12.88;74.04;97188.03;5079325;28;20338;-84
2023/11/05 07:31:58;;;;;;;0.10;0.10;;;;;;;12.88;74.48;97196.00;5077625;28;20037;-84
2023/11/05 07:34:25;;;;;;;0.10;0.10;;;;;;;12.90;74.24;97202.03;5079494;28;20024;-84
2023/11/05 07:36:52;;;;;;;0.20;0.20;;;;;;;12.91;74.12;97209.88;5078815;28;20028;-84
2023/11/05 07:39:18;;;;;;;0.10;0.10;;;;;;;12.91;74.29;97204.56;5083962;28;20070;-83
2023/11/05 07:41:45;;;;;;;0.10;0.10;;;;;;;12.93;74.18;97212.38;5079558;28;20062;-83
2023/11/05 07:44:11;;;;;;;0.15;0.15;;;;;;;12.92;74.54;97208.03;5080525;28;20372;-82
2023/11/05 07:46:37;;;;;;;0.10;0.10;;;;;;;12.95;74.42;97208.63;5078363;28;20126;-84
2023/11/05 07:49:05;;;;;;;0.10;0.10;;;;;;;12.92;74.36;97205.38;5082034;28;20027;-83
2023/11/05 07:51:32;;;;;;;0.20;0.20;;;;;;;12.97;74.41;97215.63;5080458;28;20052;-83
2023/11/05 07:53:59;;;;;;;0.10;0.10;;;;;;;12.94;74.40;97214.91;5084084;28;20024;-83
2023/11/05 07:56:25;;;;;;;0.10;0.10;;;;;;;13.03;74.22;97220.41;5088305;28;20024;-83
2023/11/05 07:58:51;;;;;;;0.10;0.10;;;;;;;13.07;74.32;97221.78;5081376;28;20123;-84
2023/11/05 08:01:17;;;;;;;0.20;0.20;;;;;;;13.02;74.57;97232.00;5083545;28;20028;-82
2023/11/05 08:03:44;;;;;;;0.15;0.15;;;;;;;13.11;74.44;97236.50;5081827;28;20028;-81
2023/11/05 08:06:10;;;;;;;0.35;0.35;;;;;;;13.06;74.44;97241.38;5089394;28;20034;-81
2023/11/05 08:08:36;;;;;;;0.10;0.10;;;;;;;13.09;74.23;97244.59;5076913;28;20028;-81
2023/11/05 08:11:03;;;;;;;0.10;0.10;;;;;;;13.15;74.22;97248.53;5087253;28;20052;-82
2023/11/05 08:13:30;;;;;;;0.10;0.10;;;;;;;13.20;74.24;97248.16;5086262;28;20207;-82
2023/11/05 08:15:57;;;;;;;0.20;0.20;;;;;;;13.18;74.08;97253.56;5084252;28;20024;-81
2023/11/05 08:18:24;;;;;;;0.80;0.80;;;;;;;13.21;74.27;97258.63;5080884;28;20115;-83
2023/11/05 08:20:50;;;;;;;0.10;0.10;;;;;;;13.24;73.95;97257.53;5077440;28;20086;-82
2023/11/05 08:23:17;;;;;;;0.20;0.20;;;;;;;13.19;74.10;97265.91;5086316;28;20112;-81
2023/11/05 08:25:43;;;;;;;0.13;0.13;;;;;;;13.15;73.96;97271.63;5079188;28;20028;-83
2023/11/05 08:28:09;;;;;;;0.10;0.10;;;;;;;13.18;74.00;97274.84;5085597;28;20428;-80
2023/11/05 08:30:36;;;;;;;0.20;0.20;;;;;;;13.26;73.73;97279.50;5074539;28;20029;-83
2023/11/05 08:33:02;;;;;;;0.10;0.10;;;;;;;13.20;74.00;97288.84;5079142;28;20032;-83
2023/11/05 08:35:28;;;;;;;0.10;0.10;;;;;;;13.29;74.11;97292.50;5077240;28;20033;-83
2023/11/05 08:37:55;;;;;;;2.67;2.50;;;;;;;13.25;74.28;97299.09;5080799;28;20115;-82
2023/11/05 08:40:25;;;;;;;0.10;0.10;;;;;;;13.42;73.95;97306.44;5085268;28;20021;-81
2023/11/05 08:42:51;;;;;;;0.45;0.45;;;;;;;13.50;73.96;97312.91;5086726;28;20031;-83
2023/11/05 08:45:18;;;;;;;0.10;0.10;;;;;;;13.61;73.93;97317.25;5083703;28;20495;-85
2023/11/05 08:47:44;;;;;;;0.10;0.10;;;;;;;13.70;73.85;97321.78;5084333;28;20028;-84
2023/11/05 08:50:10;;;;;;;0.57;0.57;;;;;;;13.68;73.31;97324.56;5083861;28;20029;-84
2023/11/05 08:52:37;;;;;;;0.10;0.10;;;;;;;13.71;73.42;97334.09;5083769;28;20097;-85
2023/11/05 08:55:04;;;;;;;0.20;0.20;;;;;;;13.63;73.22;97328.59;5081500;28;20067;-83
2023/11/05 08:57:30;;;;;;;0.20;0.20;;;;;;;13.61;72.68;97334.06;5076563;28;20025;-84
2023/11/05 08:59:56;;;;;;;0.10;0.10;;;;;;;13.65;72.85;97334.66;5077706;28;20029;-83
2023/11/05 09:02:23;;;;;;;0.10;0.10;;;;;;;13.73;72.87;97334.78;5074886;28;20035;-83
2023/11/05 09:04:49;;;;;;;0.10;0.10;;;;;;;13.71;72.93;97344.75;5070902;28;20487;-84
2023/11/05 09:07:15;;;;;;;0.57;0.22;;;;;;;13.68;72.79;97350.31;5075899;28;20028;-83
2023/11/05 09:09:41;;;;;;;0.25;0.25;;;;;;;13.59;72.64;97347.50;5074148;28;20025;-83
2023/11/05 09:12:10;;;;;;;0.10;0.10;;;;;;;13.59;72.75;97360.81;5076852;28;20391;-83
2023/11/05 09:14:36;;;;;;;0.10;0.10;;;;;;;13.65;72.75;97355.91;5067928;28;20029;-84
2023/11/05 09:17:08;;;;;;;0.20;0.20;;;;;;;13.60;72.48;97372.28;5078817;28;20032;-84
2023/11/05 09:19:35;;;;;;;0.50;0.50;;;;;;;13.72;72.57;97373.00;5075714;28;20080;-84
2023/11/05 09:22:01;;;;;;;1.05;1.05;;;;;;;13.68;72.67;97379.56;5077873;28;20044;-83
2023/11/05 09:24:27;;;;;;;0.10;0.10;;;;;;;13.64;72.44;97376.34;5076963;28;20035;-84
2023/11/05 09:26:54;;;;;;;0.10;0.10;;;;;;;13.60;72.81;97396.22;5081142;28;20025;-84
2023/11/05 09:29:20;;;;;;;0.10;0.10;;;;;;;13.51;72.64;97387.22;5078163;28;20482;-83
2023/11/05 09:31:49;;;;;;;0.13;0.13;;;;;;;13.57;72.76;97392.00;5084245;28;20030;-83
2023/11/05 09:34:16;;;;;;;1.95;1.85;;;;;;;13.48;72.62;97400.78;5087883;28;20021;-83
2023/11/05 09:36:42;;;;;;;0.17;0.17;;;;;;;13.42;72.96;97409.28;5086072;28;20035;-84
2023/11/05 09:39:09;;;;;;;0.10;0.10;;;;;;;13.44;73.04;97407.34;5084294;28;20041;-85
2023/11/05 09:41:38;;;;;;;0.10;0.10;;;;;;;13.47;73.10;97415.06;5082779;28;20027;-84
2023/11/05 09:44:05;;;;;;;0.10;0.10;;;;;;;13.40;73.88;97421.91;5085291;28;20130;-84
2023/11/05 09:46:32;;;;;;;0.30;0.30;;;;;;;13.46;73.48;97428.47;5079135;28;20040;-83
2023/11/05 09:48:59;;;;;;;0.10;0.10;;;;;;;13.42;73.56;97430.56;5081612;28;20131;-85
2023/11/05 09:51:25;;;;;;;0.10;0.10;;;;;;;13.45;73.81;97440.94;5082021;28;20103;-85
2023/11/05 09:53:51;;;;;;;0.10;0.10;;;;;;;13.35;74.11;97446.19;5083943;28;20020;-84
2023/11/05 09:56:18;;;;;;;0.10;0.10;;;;;;;13.30;74.45;97458.22;5082883;28;20024;-84
2023/11/05 09:58:45;;;;;;;0.40;0.25;;;;;;;13.25;74.60;97466.56;5078246;28;20029;-84
2023/11/05 10:01:11;;;;;;;0.10;0.10;;;;;;;13.37;74.50;97488.59;5082551;28;20451;-81
2023/11/05 10:03:37;;;;;;;0.10;0.10;;;;;;;13.33;74.87;97481.84;5079327;28;20080;-82
2023/11/05 10:06:04;;;;;;;0.20;0.20;;;;;;;13.32;74.88;97493.47;5081978;28;20020;-82
2023/11/05 10:08:34;;;;;;;0.15;0.15;;;;;;;13.28;75.12;97508.81;5083517;28;20515;-83
2023/11/05 10:11:01;;;;;;;0.10;0.10;;;;;;;13.15;75.68;97524.97;5081668;28;20027;-84
2023/11/05 10:13:28;;;;;;;0.10;0.10;;;;;;;13.18;75.66;97519.38;5080657;28;20051;-83
2023/11/05 10:16:00;;;;;;;0.10;0.10;;;;;;;13.17;75.85;97536.34;5081826;28;20025;-82
2023/11/05 10:18:26;;;;;;;0.10;0.10;;;;;;;13.20;75.70;97544.03;5080744;28;20020;-82
2023/11/05 10:20:55;;;;;;;0.10;0.10;;;;;;;13.22;75.59;97543.91;5079270;28;20103;-83
2023/11/05 10:23:22;;;;;;;0.10;0.10;;;;;;;13.39;75.18;97548.69;5083591;28;20024;-83
2023/11/05 10:25:50;;;;;;;0.10;0.10;;;;;;;13.32;75.41;97554.63;5077708;28;20499;-83
2023/11/05 10:28:19;;;;;;;0.10;0.10;;;;;;;13.40;75.40;97565.50;5081787;28;20024;-83
2023/11/05 10:30:47;;;;;;;0.10;0.10;;;;;;;13.37;75.22;97576.34;5081231;28;20086;-83
2023/11/05 10:33:14;;;;;;;0.30;0.30;;;;;;;13.56;75.00;97589.81;5082057;28;20085;-84
2023/11/05 10:35:41;;;;;;;0.10;0.10;;;;;;;13.55;74.67;97603.25;5081336;28;20029;-84
2023/11/05 10:38:08;;;;;;;0.10;0.10;;;;;;;13.54;73.78;97598.91;5080485;28;20169;-84
2023/11/05 10:40:35;;;;;;;0.10;0.10;;;;;;;13.53;73.09;97603.38;5079851;28;20028;-85
2023/11/05 10:43:01;;;;;;;0.10;0.10;;;;;;;13.60;72.93;97619.66;5079141;28;20040;-84
2023/11/05 10:45:28;;;;;;;0.10;0.10;;;;;;;13.58;72.59;97625.13;5079295;28;20091;-84
2023/11/05 10:47:54;;;;;;;0.20;0.20;;;;;;;13.69;72.30;97623.34;5078360;28;20021;-83
2023/11/05 10:50:25;;;;;;;0.10;0.10;;;;;;;13.79;72.00;97628.75;5079707;28;20038;-84
2023/11/05 10:52:56;;;;;;;0.10;0.10;;;;;;;13.97;72.14;97640.50;5079753;28;20033;-84
2023/11/05 10:55:32;;;;;;;0.10;0.10;;;;;;;14.22;71.83;97636.56;5073956;28;20032;-85
2023/11/05 10:57:59;;;;;;;0.10;0.10;;;;;;;14.18;71.16;97648.44;5080246;28;20017;-84
2023/11/05 11:03:02;;;;;;;0.10;0.10;;;;;;;14.16;69.59;97652.22;5123301;27;20838;-85
2023/11/05 11:08:25;;;;;;;0.15;0.15;;;;;;;14.31;69.18;97666.03;5118153;27;20382;-85
2023/11/05 11:11:06;;;;;;;0.10;0.10;;;;;;;14.27;67.97;97665.44;5105403;28;20094;-85
2023/11/05 11:13:33;;;;;;;9.95;0.57;;;;;;;14.06;67.79;97679.63;5107615;28;20026;-82
2023/11/05 11:16:01;;;;;;;0.10;0.10;;;;;;;13.99;68.08;97688.25;5096219;28;20031;-83
2023/11/05 11:18:32;;;;;;;0.22;0.22;;;;;;;13.93;68.40;97694.94;5104962;28;20089;-82
2023/11/05 11:21:01;;;;;;;0.30;0.30;;;;;;;13.81;69.21;97707.47;5093416;28;20035;-83
2023/11/05 11:23:27;;;;;;;0.10;0.10;;;;;;;13.81;69.36;97701.31;5097659;28;20127;-80
2023/11/05 11:28:40;;;;;;;0.10;0.10;;;;;;;13.80;69.70;97711.09;5069673;28;20394;-83
2023/11/05 11:31:07;;;;;;;0.15;0.15;;;;;;;13.64;69.74;97719.50;5060857;28;20025;-85
2023/11/05 11:33:33;;;;;;;1.85;1.75;;;;;;;13.67;69.47;97721.94;5050007;28;20048;-85
2023/11/05 11:35:59;;;;;;;0.20;0.20;;;;;;;13.73;70.01;97728.53;5054729;28;20045;-84
2023/11/05 11:38:25;;;;;;;0.15;0.15;;;;;;;13.74;69.57;97739.09;5058950;28;20489;-84